sensor_id;sensor_type;location;lat;lon;timestamp;P1;durP1;ratioP1;P2;durP2;ratioP2
5157;SDS011;2598;52.364;9.772;2023-03-31T00:00:45;9.10;;;2.37;;
5157;SDS011;2598;52.364;9.772;2023-03-31T00:03:14;8.50;;;2.20;;
5157;SDS011;2598;52.364;9.772;2023-03-31T00:05:53;9.07;;;2.27;;
5157;SDS011;2598;52.364;9.772;2023-03-31T00:08:19;10.17;;;2.27;;
5157;SDS011;2598;52.364;9.772;2023-03-31T00:10:45;9.30;;;1.93;;
5157;SDS011;2598;52.364;9.772;2023-03-31T00:13:12;10.63;;;2.97;;
5157;SDS011;2598;52.364;9.772;2023-03-31T00:15:38;16.53;;;2.60;;
5157;SDS011;2598;52.364;9.772;2023-03-31T00:18:05;7.40;;;1.90;;
5157;SDS011;2598;52.364;9.772;2023-03-31T00:20:31;11.40;;;2.23;;
5157;SDS011;2598;52.364;9.772;2023-03-31T00:22:57;12.27;;;1.97;;
5157;SDS011;2598;52.364;9.772;2023-03-31T00:25:25;9.47;;;2.27;;
5157;SDS011;2598;52.364;9.772;2023-03-31T00:27:52;10.90;;;1.83;;
5157;SDS011;2598;52.364;9.772;2023-03-31T00:30:17;11.27;;;2.27;;
5157;SDS011;2598;52.364;9.772;2023-03-31T00:32:44;8.77;;;2.10;;
5157;SDS011;2598;52.364;9.772;2023-03-31T00:35:11;11.30;;;1.80;;
5157;SDS011;2598;52.364;9.772;2023-03-31T00:37:36;12.77;;;2.30;;
5157;SDS011;2598;52.364;9.772;2023-03-31T00:40:02;6.47;;;2.00;;
5157;SDS011;2598;52.364;9.772;2023-03-31T00:42:37;6.90;;;1.90;;
5157;SDS011;2598;52.364;9.772;2023-03-31T00:47:49;9.23;;;2.30;;
5157;SDS011;2598;52.364;9.772;2023-03-31T00:50:21;9.77;;;2.40;;
5157;SDS011;2598;52.364;9.772;2023-03-31T00:52:49;5.73;;;1.70;;
5157;SDS011;2598;52.364;9.772;2023-03-31T00:55:17;11.77;;;2.13;;
5157;SDS011;2598;52.364;9.772;2023-03-31T00:57:46;8.97;;;1.80;;
5157;SDS011;2598;52.364;9.772;2023-03-31T01:00:13;8.17;;;1.80;;
5157;SDS011;2598;52.364;9.772;2023-03-31T01:02:45;11.47;;;2.00;;
5157;SDS011;2598;52.364;9.772;2023-03-31T01:05:16;12.17;;;2.30;;
5157;SDS011;2598;52.364;9.772;2023-03-31T01:07:43;6.90;;;1.80;;
5157;SDS011;2598;52.364;9.772;2023-03-31T01:10:12;10.17;;;2.03;;
5157;SDS011;2598;52.364;9.772;2023-03-31T01:12:43;15.07;;;1.70;;
5157;SDS011;2598;52.364;9.772;2023-03-31T01:15:10;5.10;;;1.27;;
5157;SDS011;2598;52.364;9.772;2023-03-31T01:17:36;7.03;;;1.70;;
5157;SDS011;2598;52.364;9.772;2023-03-31T01:25:38;9.37;;;2.00;;
5157;SDS011;2598;52.364;9.772;2023-03-31T01:30:45;8.20;;;1.90;;
5157;SDS011;2598;52.364;9.772;2023-03-31T01:38:38;9.80;;;1.57;;
5157;SDS011;2598;52.364;9.772;2023-03-31T01:41:13;7.27;;;1.70;;
5157;SDS011;2598;52.364;9.772;2023-03-31T01:43:58;7.97;;;1.90;;
5157;SDS011;2598;52.364;9.772;2023-03-31T01:46:30;12.53;;;1.80;;
5157;SDS011;2598;52.364;9.772;2023-03-31T01:51:33;7.00;;;1.50;;
5157;SDS011;2598;52.364;9.772;2023-03-31T01:56:32;7.33;;;2.20;;
5157;SDS011;2598;52.364;9.772;2023-03-31T01:59:06;8.60;;;1.80;;
5157;SDS011;2598;52.364;9.772;2023-03-31T02:01:34;8.50;;;1.67;;
5157;SDS011;2598;52.364;9.772;2023-03-31T02:06:36;6.77;;;1.63;;
5157;SDS011;2598;52.364;9.772;2023-03-31T02:09:06;5.13;;;1.40;;
5157;SDS011;2598;52.364;9.772;2023-03-31T02:11:34;7.57;;;1.50;;
5157;SDS011;2598;52.364;9.772;2023-03-31T02:14:01;6.80;;;1.83;;
5157;SDS011;2598;52.364;9.772;2023-03-31T02:16:29;7.00;;;1.80;;
5157;SDS011;2598;52.364;9.772;2023-03-31T02:18:57;5.73;;;1.60;;
5157;SDS011;2598;52.364;9.772;2023-03-31T02:21:30;6.83;;;1.57;;
5157;SDS011;2598;52.364;9.772;2023-03-31T02:23:58;12.50;;;1.97;;
5157;SDS011;2598;52.364;9.772;2023-03-31T02:26:27;8.47;;;1.70;;
5157;SDS011;2598;52.364;9.772;2023-03-31T02:28:54;8.20;;;1.83;;
5157;SDS011;2598;52.364;9.772;2023-03-31T02:31:22;6.63;;;1.37;;
5157;SDS011;2598;52.364;9.772;2023-03-31T02:33:51;6.40;;;1.73;;
5157;SDS011;2598;52.364;9.772;2023-03-31T02:36:17;7.90;;;1.60;;
5157;SDS011;2598;52.364;9.772;2023-03-31T02:38:45;9.40;;;1.77;;
5157;SDS011;2598;52.364;9.772;2023-03-31T02:41:12;10.00;;;1.70;;
5157;SDS011;2598;52.364;9.772;2023-03-31T02:43:38;6.50;;;1.87;;
5157;SDS011;2598;52.364;9.772;2023-03-31T02:46:04;6.93;;;2.20;;
5157;SDS011;2598;52.364;9.772;2023-03-31T02:48:32;7.47;;;1.70;;
5157;SDS011;2598;52.364;9.772;2023-03-31T02:59:32;6.90;;;1.83;;
5157;SDS011;2598;52.364;9.772;2023-03-31T03:01:43;13.67;;;2.10;;
5157;SDS011;2598;52.364;9.772;2023-03-31T03:04:22;9.97;;;1.90;;
5157;SDS011;2598;52.364;9.772;2023-03-31T03:06:55;9.50;;;1.70;;
5157;SDS011;2598;52.364;9.772;2023-03-31T03:09:32;6.63;;;1.57;;
5157;SDS011;2598;52.364;9.772;2023-03-31T03:14:39;10.27;;;2.13;;
5157;SDS011;2598;52.364;9.772;2023-03-31T03:17:08;7.30;;;1.93;;
5157;SDS011;2598;52.364;9.772;2023-03-31T03:19:35;6.13;;;1.77;;
5157;SDS011;2598;52.364;9.772;2023-03-31T03:22:01;7.60;;;2.00;;
5157;SDS011;2598;52.364;9.772;2023-03-31T03:24:27;8.53;;;1.77;;
5157;SDS011;2598;52.364;9.772;2023-03-31T03:26:54;9.40;;;2.23;;
5157;SDS011;2598;52.364;9.772;2023-03-31T03:29:20;13.57;;;1.93;;
5157;SDS011;2598;52.364;9.772;2023-03-31T03:31:46;4.87;;;1.33;;
5157;SDS011;2598;52.364;9.772;2023-03-31T03:34:12;7.83;;;1.97;;
5157;SDS011;2598;52.364;9.772;2023-03-31T03:36:38;8.67;;;1.50;;
5157;SDS011;2598;52.364;9.772;2023-03-31T03:39:05;8.93;;;2.37;;
5157;SDS011;2598;52.364;9.772;2023-03-31T03:41:31;6.50;;;1.60;;
5157;SDS011;2598;52.364;9.772;2023-03-31T03:43:58;5.53;;;1.10;;
5157;SDS011;2598;52.364;9.772;2023-03-31T03:46:24;7.90;;;1.80;;
5157;SDS011;2598;52.364;9.772;2023-03-31T03:48:50;8.00;;;1.63;;
5157;SDS011;2598;52.364;9.772;2023-03-31T03:51:16;10.30;;;2.10;;
5157;SDS011;2598;52.364;9.772;2023-03-31T03:53:42;9.73;;;1.90;;
5157;SDS011;2598;52.364;9.772;2023-03-31T03:56:08;5.87;;;1.60;;
5157;SDS011;2598;52.364;9.772;2023-03-31T03:58:33;7.70;;;1.90;;
5157;SDS011;2598;52.364;9.772;2023-03-31T04:01:00;7.53;;;1.20;;
5157;SDS011;2598;52.364;9.772;2023-03-31T04:03:26;7.10;;;1.67;;
5157;SDS011;2598;52.364;9.772;2023-03-31T04:05:52;10.30;;;1.63;;
5157;SDS011;2598;52.364;9.772;2023-03-31T04:08:18;7.73;;;1.50;;
5157;SDS011;2598;52.364;9.772;2023-03-31T04:10:44;11.67;;;1.63;;
5157;SDS011;2598;52.364;9.772;2023-03-31T04:13:12;7.97;;;1.40;;
5157;SDS011;2598;52.364;9.772;2023-03-31T04:15:38;4.70;;;1.30;;
5157;SDS011;2598;52.364;9.772;2023-03-31T04:18:04;7.53;;;1.50;;
5157;SDS011;2598;52.364;9.772;2023-03-31T04:20:30;4.67;;;1.60;;
5157;SDS011;2598;52.364;9.772;2023-03-31T04:22:56;6.10;;;1.60;;
5157;SDS011;2598;52.364;9.772;2023-03-31T04:25:22;7.20;;;1.40;;
5157;SDS011;2598;52.364;9.772;2023-03-31T04:27:49;6.60;;;1.27;;
5157;SDS011;2598;52.364;9.772;2023-03-31T04:30:18;5.03;;;1.30;;
5157;SDS011;2598;52.364;9.772;2023-03-31T04:32:51;7.73;;;1.67;;
5157;SDS011;2598;52.364;9.772;2023-03-31T04:35:17;6.47;;;1.70;;
5157;SDS011;2598;52.364;9.772;2023-03-31T04:37:44;7.73;;;1.50;;
5157;SDS011;2598;52.364;9.772;2023-03-31T04:40:10;6.17;;;1.20;;
5157;SDS011;2598;52.364;9.772;2023-03-31T04:42:36;5.97;;;1.77;;
5157;SDS011;2598;52.364;9.772;2023-03-31T04:45:02;9.27;;;1.63;;
5157;SDS011;2598;52.364;9.772;2023-03-31T04:47:28;7.40;;;1.20;;
5157;SDS011;2598;52.364;9.772;2023-03-31T04:49:54;7.77;;;1.50;;
5157;SDS011;2598;52.364;9.772;2023-03-31T04:52:20;10.20;;;1.73;;
5157;SDS011;2598;52.364;9.772;2023-03-31T04:54:46;7.27;;;1.80;;
5157;SDS011;2598;52.364;9.772;2023-03-31T04:57:12;8.57;;;1.67;;
5157;SDS011;2598;52.364;9.772;2023-03-31T04:59:38;5.63;;;1.40;;
5157;SDS011;2598;52.364;9.772;2023-03-31T05:02:04;5.67;;;1.50;;
5157;SDS011;2598;52.364;9.772;2023-03-31T05:04:30;10.83;;;2.23;;
5157;SDS011;2598;52.364;9.772;2023-03-31T05:06:56;12.23;;;2.00;;
5157;SDS011;2598;52.364;9.772;2023-03-31T05:09:22;6.57;;;1.50;;
5157;SDS011;2598;52.364;9.772;2023-03-31T05:11:48;5.27;;;1.27;;
5157;SDS011;2598;52.364;9.772;2023-03-31T05:14:14;9.00;;;2.10;;
5157;SDS011;2598;52.364;9.772;2023-03-31T05:16:39;8.50;;;1.73;;
5157;SDS011;2598;52.364;9.772;2023-03-31T05:19:06;9.27;;;1.47;;
5157;SDS011;2598;52.364;9.772;2023-03-31T05:21:31;9.47;;;2.07;;
5157;SDS011;2598;52.364;9.772;2023-03-31T05:23:57;8.50;;;1.50;;
5157;SDS011;2598;52.364;9.772;2023-03-31T05:26:23;5.80;;;1.60;;
5157;SDS011;2598;52.364;9.772;2023-03-31T05:28:52;7.53;;;1.47;;
5157;SDS011;2598;52.364;9.772;2023-03-31T05:31:18;10.03;;;1.70;;
5157;SDS011;2598;52.364;9.772;2023-03-31T05:33:44;6.60;;;1.80;;
5157;SDS011;2598;52.364;9.772;2023-03-31T05:36:12;4.63;;;1.30;;
5157;SDS011;2598;52.364;9.772;2023-03-31T05:38:39;7.80;;;1.50;;
5157;SDS011;2598;52.364;9.772;2023-03-31T05:41:05;7.20;;;1.43;;
5157;SDS011;2598;52.364;9.772;2023-03-31T05:43:33;8.30;;;2.03;;
5157;SDS011;2598;52.364;9.772;2023-03-31T05:45:59;7.43;;;1.60;;
5157;SDS011;2598;52.364;9.772;2023-03-31T05:48:25;6.50;;;1.50;;
5157;SDS011;2598;52.364;9.772;2023-03-31T05:50:50;6.80;;;1.60;;
5157;SDS011;2598;52.364;9.772;2023-03-31T05:53:16;8.33;;;1.90;;
5157;SDS011;2598;52.364;9.772;2023-03-31T05:55:42;11.13;;;1.50;;
5157;SDS011;2598;52.364;9.772;2023-03-31T05:58:08;8.10;;;1.30;;
5157;SDS011;2598;52.364;9.772;2023-03-31T06:00:34;7.33;;;1.37;;
5157;SDS011;2598;52.364;9.772;2023-03-31T06:03:01;9.53;;;1.50;;
5157;SDS011;2598;52.364;9.772;2023-03-31T06:05:27;5.20;;;1.20;;
5157;SDS011;2598;52.364;9.772;2023-03-31T06:07:55;9.47;;;1.70;;
5157;SDS011;2598;52.364;9.772;2023-03-31T06:10:21;6.40;;;1.63;;
5157;SDS011;2598;52.364;9.772;2023-03-31T06:12:46;5.30;;;1.30;;
5157;SDS011;2598;52.364;9.772;2023-03-31T06:15:12;6.37;;;1.73;;
5157;SDS011;2598;52.364;9.772;2023-03-31T06:17:38;7.70;;;1.70;;
5157;SDS011;2598;52.364;9.772;2023-03-31T06:20:04;6.50;;;1.30;;
5157;SDS011;2598;52.364;9.772;2023-03-31T06:22:31;5.70;;;1.43;;
5157;SDS011;2598;52.364;9.772;2023-03-31T06:24:57;6.33;;;1.40;;
5157;SDS011;2598;52.364;9.772;2023-03-31T06:27:22;3.90;;;1.20;;
5157;SDS011;2598;52.364;9.772;2023-03-31T06:29:48;6.83;;;1.30;;
5157;SDS011;2598;52.364;9.772;2023-03-31T06:32:14;5.43;;;1.17;;
5157;SDS011;2598;52.364;9.772;2023-03-31T06:34:40;5.77;;;1.10;;
5157;SDS011;2598;52.364;9.772;2023-03-31T06:37:07;6.87;;;1.20;;
5157;SDS011;2598;52.364;9.772;2023-03-31T06:39:33;6.10;;;1.50;;
5157;SDS011;2598;52.364;9.772;2023-03-31T06:41:59;7.80;;;1.90;;
5157;SDS011;2598;52.364;9.772;2023-03-31T06:44:25;8.47;;;1.73;;
5157;SDS011;2598;52.364;9.772;2023-03-31T06:46:51;8.47;;;1.50;;
5157;SDS011;2598;52.364;9.772;2023-03-31T06:49:17;5.73;;;1.20;;
5157;SDS011;2598;52.364;9.772;2023-03-31T06:51:43;7.53;;;1.53;;
5157;SDS011;2598;52.364;9.772;2023-03-31T06:54:09;11.70;;;1.83;;
5157;SDS011;2598;52.364;9.772;2023-03-31T06:56:35;7.63;;;1.83;;
5157;SDS011;2598;52.364;9.772;2023-03-31T06:59:01;6.30;;;1.63;;
5157;SDS011;2598;52.364;9.772;2023-03-31T07:01:26;7.50;;;1.50;;
5157;SDS011;2598;52.364;9.772;2023-03-31T07:03:52;6.13;;;1.30;;
5157;SDS011;2598;52.364;9.772;2023-03-31T07:06:18;10.40;;;1.73;;
5157;SDS011;2598;52.364;9.772;2023-03-31T07:08:44;5.90;;;1.23;;
5157;SDS011;2598;52.364;9.772;2023-03-31T07:11:10;6.50;;;1.40;;
5157;SDS011;2598;52.364;9.772;2023-03-31T07:13:36;6.47;;;1.60;;
5157;SDS011;2598;52.364;9.772;2023-03-31T07:16:02;5.80;;;1.40;;
5157;SDS011;2598;52.364;9.772;2023-03-31T07:18:28;8.90;;;1.90;;
5157;SDS011;2598;52.364;9.772;2023-03-31T07:20:58;6.87;;;1.57;;
5157;SDS011;2598;52.364;9.772;2023-03-31T07:23:25;7.43;;;1.50;;
5157;SDS011;2598;52.364;9.772;2023-03-31T07:25:51;6.80;;;1.53;;
5157;SDS011;2598;52.364;9.772;2023-03-31T07:28:18;9.33;;;1.57;;
5157;SDS011;2598;52.364;9.772;2023-03-31T07:30:44;9.30;;;1.53;;
5157;SDS011;2598;52.364;9.772;2023-03-31T07:33:10;8.60;;;1.70;;
5157;SDS011;2598;52.364;9.772;2023-03-31T07:35:37;9.23;;;1.80;;
5157;SDS011;2598;52.364;9.772;2023-03-31T07:38:03;7.37;;;1.60;;
5157;SDS011;2598;52.364;9.772;2023-03-31T07:40:29;6.90;;;1.73;;
5157;SDS011;2598;52.364;9.772;2023-03-31T07:42:55;5.87;;;1.50;;
5157;SDS011;2598;52.364;9.772;2023-03-31T07:45:22;6.93;;;1.83;;
5157;SDS011;2598;52.364;9.772;2023-03-31T07:47:48;5.40;;;1.63;;
5157;SDS011;2598;52.364;9.772;2023-03-31T07:50:15;7.10;;;1.50;;
5157;SDS011;2598;52.364;9.772;2023-03-31T07:52:41;4.20;;;1.40;;
5157;SDS011;2598;52.364;9.772;2023-03-31T07:55:08;10.20;;;1.50;;
5157;SDS011;2598;52.364;9.772;2023-03-31T07:57:34;10.03;;;1.60;;
5157;SDS011;2598;52.364;9.772;2023-03-31T08:00:00;5.60;;;1.50;;
5157;SDS011;2598;52.364;9.772;2023-03-31T08:02:31;8.10;;;1.50;;
5157;SDS011;2598;52.364;9.772;2023-03-31T08:04:56;4.70;;;1.30;;
5157;SDS011;2598;52.364;9.772;2023-03-31T08:07:22;6.40;;;1.30;;
5157;SDS011;2598;52.364;9.772;2023-03-31T08:09:49;5.63;;;1.30;;
5157;SDS011;2598;52.364;9.772;2023-03-31T08:12:15;5.37;;;1.30;;
5157;SDS011;2598;52.364;9.772;2023-03-31T08:14:41;6.47;;;1.60;;
5157;SDS011;2598;52.364;9.772;2023-03-31T08:17:08;4.70;;;1.50;;
5157;SDS011;2598;52.364;9.772;2023-03-31T08:19:34;10.43;;;1.70;;
5157;SDS011;2598;52.364;9.772;2023-03-31T08:22:00;6.40;;;1.40;;
5157;SDS011;2598;52.364;9.772;2023-03-31T08:24:26;6.13;;;1.17;;
5157;SDS011;2598;52.364;9.772;2023-03-31T08:26:52;6.70;;;1.93;;
5157;SDS011;2598;52.364;9.772;2023-03-31T08:29:18;5.93;;;1.10;;
5157;SDS011;2598;52.364;9.772;2023-03-31T08:31:43;11.43;;;1.30;;
5157;SDS011;2598;52.364;9.772;2023-03-31T08:34:10;8.03;;;1.47;;
5157;SDS011;2598;52.364;9.772;2023-03-31T08:36:35;6.30;;;1.53;;
5157;SDS011;2598;52.364;9.772;2023-03-31T08:39:02;6.67;;;1.70;;
5157;SDS011;2598;52.364;9.772;2023-03-31T08:44:01;6.13;;;1.60;;
5157;SDS011;2598;52.364;9.772;2023-03-31T08:46:28;9.50;;;1.60;;
5157;SDS011;2598;52.364;9.772;2023-03-31T08:48:55;5.40;;;1.10;;
5157;SDS011;2598;52.364;9.772;2023-03-31T08:53:54;7.63;;;1.67;;
5157;SDS011;2598;52.364;9.772;2023-03-31T08:56:22;12.80;;;1.83;;
5157;SDS011;2598;52.364;9.772;2023-03-31T08:58:51;5.37;;;1.20;;
5157;SDS011;2598;52.364;9.772;2023-03-31T09:04:06;5.80;;;1.33;;
5157;SDS011;2598;52.364;9.772;2023-03-31T09:06:40;5.80;;;1.33;;
5157;SDS011;2598;52.364;9.772;2023-03-31T09:09:10;6.53;;;1.70;;
5157;SDS011;2598;52.364;9.772;2023-03-31T09:11:49;7.47;;;1.50;;
5157;SDS011;2598;52.364;9.772;2023-03-31T09:14:30;9.20;;;1.47;;
5157;SDS011;2598;52.364;9.772;2023-03-31T09:17:09;5.20;;;1.30;;
5157;SDS011;2598;52.364;9.772;2023-03-31T09:19:39;8.33;;;1.93;;
5157;SDS011;2598;52.364;9.772;2023-03-31T09:22:13;4.90;;;1.40;;
5157;SDS011;2598;52.364;9.772;2023-03-31T09:24:48;8.03;;;1.90;;
5157;SDS011;2598;52.364;9.772;2023-03-31T09:27:16;6.80;;;1.53;;
5157;SDS011;2598;52.364;9.772;2023-03-31T09:32:16;4.47;;;1.30;;
5157;SDS011;2598;52.364;9.772;2023-03-31T09:34:43;7.13;;;1.50;;
5157;SDS011;2598;52.364;9.772;2023-03-31T09:37:10;7.00;;;1.40;;
5157;SDS011;2598;52.364;9.772;2023-03-31T09:39:36;6.90;;;1.60;;
5157;SDS011;2598;52.364;9.772;2023-03-31T09:42:02;5.67;;;1.43;;
5157;SDS011;2598;52.364;9.772;2023-03-31T09:44:38;6.47;;;1.37;;
5157;SDS011;2598;52.364;9.772;2023-03-31T09:47:06;6.30;;;1.50;;
5157;SDS011;2598;52.364;9.772;2023-03-31T09:49:35;4.47;;;1.37;;
5157;SDS011;2598;52.364;9.772;2023-03-31T09:52:06;7.20;;;1.63;;
5157;SDS011;2598;52.364;9.772;2023-03-31T09:54:40;5.67;;;1.50;;
5157;SDS011;2598;52.364;9.772;2023-03-31T09:57:12;4.50;;;1.33;;
5157;SDS011;2598;52.364;9.772;2023-03-31T09:59:39;5.83;;;1.10;;
5157;SDS011;2598;52.364;9.772;2023-03-31T10:02:26;7.43;;;1.50;;
5157;SDS011;2598;52.364;9.772;2023-03-31T10:04:54;3.73;;;1.10;;
5157;SDS011;2598;52.364;9.772;2023-03-31T10:07:21;5.37;;;1.67;;
5157;SDS011;2598;52.364;9.772;2023-03-31T10:09:47;4.37;;;1.03;;
5157;SDS011;2598;52.364;9.772;2023-03-31T10:12:15;5.27;;;1.20;;
5157;SDS011;2598;52.364;9.772;2023-03-31T10:14:45;8.30;;;1.30;;
5157;SDS011;2598;52.364;9.772;2023-03-31T10:17:16;6.17;;;1.40;;
5157;SDS011;2598;52.364;9.772;2023-03-31T10:19:46;4.50;;;1.17;;
5157;SDS011;2598;52.364;9.772;2023-03-31T10:24:48;4.40;;;0.93;;
5157;SDS011;2598;52.364;9.772;2023-03-31T10:27:28;5.03;;;1.00;;
5157;SDS011;2598;52.364;9.772;2023-03-31T10:29:55;9.03;;;1.23;;
5157;SDS011;2598;52.364;9.772;2023-03-31T10:34:47;5.67;;;1.27;;
5157;SDS011;2598;52.364;9.772;2023-03-31T10:37:16;4.97;;;1.27;;
5157;SDS011;2598;52.364;9.772;2023-03-31T10:39:42;7.33;;;1.30;;
5157;SDS011;2598;52.364;9.772;2023-03-31T10:42:11;3.80;;;1.00;;
5157;SDS011;2598;52.364;9.772;2023-03-31T10:44:43;4.70;;;1.03;;
5157;SDS011;2598;52.364;9.772;2023-03-31T10:49:39;3.73;;;1.00;;
5157;SDS011;2598;52.364;9.772;2023-03-31T10:52:14;4.67;;;0.90;;
5157;SDS011;2598;52.364;9.772;2023-03-31T10:54:45;5.07;;;1.13;;
5157;SDS011;2598;52.364;9.772;2023-03-31T10:57:11;6.47;;;1.30;;
5157;SDS011;2598;52.364;9.772;2023-03-31T10:59:50;4.20;;;0.83;;
5157;SDS011;2598;52.364;9.772;2023-03-31T11:02:36;4.07;;;0.83;;
5157;SDS011;2598;52.364;9.772;2023-03-31T11:15:58;4.67;;;1.20;;
5157;SDS011;2598;52.364;9.772;2023-03-31T11:18:38;5.83;;;1.13;;
5157;SDS011;2598;52.364;9.772;2023-03-31T11:21:22;4.70;;;0.90;;
5157;SDS011;2598;52.364;9.772;2023-03-31T11:26:41;4.37;;;1.07;;
5157;SDS011;2598;52.364;9.772;2023-03-31T11:29:15;4.33;;;0.90;;
5157;SDS011;2598;52.364;9.772;2023-03-31T11:31:49;5.93;;;0.80;;
5157;SDS011;2598;52.364;9.772;2023-03-31T11:34:29;4.30;;;1.17;;
5157;SDS011;2598;52.364;9.772;2023-03-31T11:39:51;4.20;;;0.90;;
5157;SDS011;2598;52.364;9.772;2023-03-31T11:42:25;4.93;;;1.10;;
5157;SDS011;2598;52.364;9.772;2023-03-31T11:44:53;5.13;;;0.83;;
5157;SDS011;2598;52.364;9.772;2023-03-31T11:47:23;3.60;;;0.97;;
5157;SDS011;2598;52.364;9.772;2023-03-31T11:49:51;7.50;;;1.47;;
5157;SDS011;2598;52.364;9.772;2023-03-31T11:52:21;4.20;;;1.10;;
5157;SDS011;2598;52.364;9.772;2023-03-31T11:54:57;5.00;;;0.90;;
5157;SDS011;2598;52.364;9.772;2023-03-31T11:57:27;4.17;;;1.10;;
5157;SDS011;2598;52.364;9.772;2023-03-31T11:59:55;4.37;;;1.10;;
5157;SDS011;2598;52.364;9.772;2023-03-31T12:04:51;5.10;;;1.10;;
5157;SDS011;2598;52.364;9.772;2023-03-31T12:07:40;4.60;;;1.23;;
5157;SDS011;2598;52.364;9.772;2023-03-31T12:10:14;6.90;;;1.07;;
5157;SDS011;2598;52.364;9.772;2023-03-31T12:12:43;4.73;;;1.10;;
5157;SDS011;2598;52.364;9.772;2023-03-31T12:15:16;4.90;;;1.33;;
5157;SDS011;2598;52.364;9.772;2023-03-31T12:17:44;3.80;;;0.97;;
5157;SDS011;2598;52.364;9.772;2023-03-31T12:20:32;5.80;;;1.10;;
5157;SDS011;2598;52.364;9.772;2023-03-31T12:23:01;5.07;;;1.30;;
5157;SDS011;2598;52.364;9.772;2023-03-31T12:25:35;4.93;;;1.10;;
5157;SDS011;2598;52.364;9.772;2023-03-31T12:28:04;4.10;;;1.03;;
5157;SDS011;2598;52.364;9.772;2023-03-31T12:30:31;3.73;;;0.93;;
5157;SDS011;2598;52.364;9.772;2023-03-31T12:35:51;4.27;;;1.20;;
5157;SDS011;2598;52.364;9.772;2023-03-31T12:41:04;5.20;;;1.10;;
5157;SDS011;2598;52.364;9.772;2023-03-31T12:43:36;3.70;;;0.83;;
5157;SDS011;2598;52.364;9.772;2023-03-31T12:46:10;4.37;;;0.97;;
5157;SDS011;2598;52.364;9.772;2023-03-31T12:49:04;4.73;;;1.10;;
5157;SDS011;2598;52.364;9.772;2023-03-31T12:54:30;3.87;;;1.07;;
5157;SDS011;2598;52.364;9.772;2023-03-31T12:59:41;4.43;;;0.90;;
5157;SDS011;2598;52.364;9.772;2023-03-31T13:04:34;4.43;;;1.23;;
5157;SDS011;2598;52.364;9.772;2023-03-31T13:07:03;4.10;;;1.13;;
5157;SDS011;2598;52.364;9.772;2023-03-31T13:12:07;5.20;;;1.30;;
5157;SDS011;2598;52.364;9.772;2023-03-31T13:14:37;5.80;;;1.13;;
5157;SDS011;2598;52.364;9.772;2023-03-31T13:19:48;4.73;;;1.00;;
5157;SDS011;2598;52.364;9.772;2023-03-31T13:22:26;5.03;;;1.10;;
5157;SDS011;2598;52.364;9.772;2023-03-31T13:25:02;6.10;;;1.50;;
5157;SDS011;2598;52.364;9.772;2023-03-31T13:27:47;5.60;;;1.43;;
5157;SDS011;2598;52.364;9.772;2023-03-31T13:33:41;4.43;;;1.20;;
5157;SDS011;2598;52.364;9.772;2023-03-31T13:35:50;8.23;;;1.43;;
5157;SDS011;2598;52.364;9.772;2023-03-31T13:41:04;4.73;;;1.10;;
5157;SDS011;2598;52.364;9.772;2023-03-31T13:43:43;6.50;;;1.50;;
5157;SDS011;2598;52.364;9.772;2023-03-31T13:49:01;7.33;;;1.93;;
5157;SDS011;2598;52.364;9.772;2023-03-31T13:56:45;6.53;;;1.20;;
5157;SDS011;2598;52.364;9.772;2023-03-31T14:01:44;6.60;;;1.80;;
5157;SDS011;2598;52.364;9.772;2023-03-31T14:07:01;5.90;;;1.20;;
5157;SDS011;2598;52.364;9.772;2023-03-31T14:09:32;4.97;;;1.27;;
5157;SDS011;2598;52.364;9.772;2023-03-31T14:11:59;5.70;;;1.40;;
5157;SDS011;2598;52.364;9.772;2023-03-31T14:14:25;4.53;;;1.40;;
5157;SDS011;2598;52.364;9.772;2023-03-31T14:16:56;5.83;;;1.73;;
5157;SDS011;2598;52.364;9.772;2023-03-31T14:22:10;5.97;;;1.50;;
5157;SDS011;2598;52.364;9.772;2023-03-31T14:24:43;4.57;;;1.57;;
5157;SDS011;2598;52.364;9.772;2023-03-31T14:29:59;7.73;;;1.57;;
5157;SDS011;2598;52.364;9.772;2023-03-31T14:37:43;10.30;;;1.57;;
5157;SDS011;2598;52.364;9.772;2023-03-31T14:40:12;6.13;;;1.83;;
5157;SDS011;2598;52.364;9.772;2023-03-31T14:42:40;6.00;;;1.40;;
5157;SDS011;2598;52.364;9.772;2023-03-31T14:45:15;5.60;;;1.23;;
5157;SDS011;2598;52.364;9.772;2023-03-31T14:47:41;6.67;;;1.60;;
5157;SDS011;2598;52.364;9.772;2023-03-31T14:50:14;8.07;;;2.10;;
5157;SDS011;2598;52.364;9.772;2023-03-31T14:52:45;6.77;;;1.90;;
5157;SDS011;2598;52.364;9.772;2023-03-31T14:55:14;9.20;;;2.07;;
5157;SDS011;2598;52.364;9.772;2023-03-31T14:57:40;5.93;;;1.57;;
5157;SDS011;2598;52.364;9.772;2023-03-31T15:00:08;6.20;;;1.87;;
5157;SDS011;2598;52.364;9.772;2023-03-31T15:02:39;8.33;;;1.83;;
5157;SDS011;2598;52.364;9.772;2023-03-31T15:05:48;5.53;;;1.47;;
5157;SDS011;2598;52.364;9.772;2023-03-31T15:07:56;8.07;;;1.70;;
5157;SDS011;2598;52.364;9.772;2023-03-31T15:10:22;6.00;;;1.50;;
5157;SDS011;2598;52.364;9.772;2023-03-31T15:12:48;9.03;;;2.00;;
5157;SDS011;2598;52.364;9.772;2023-03-31T15:15:15;7.60;;;1.77;;
5157;SDS011;2598;52.364;9.772;2023-03-31T15:17:42;11.43;;;2.23;;
5157;SDS011;2598;52.364;9.772;2023-03-31T15:20:43;13.30;;;2.30;;
5157;SDS011;2598;52.364;9.772;2023-03-31T15:23:04;6.83;;;1.50;;
5157;SDS011;2598;52.364;9.772;2023-03-31T15:25:35;11.87;;;2.30;;
5157;SDS011;2598;52.364;9.772;2023-03-31T15:28:06;9.60;;;2.03;;
5157;SDS011;2598;52.364;9.772;2023-03-31T15:30:34;7.37;;;1.97;;
5157;SDS011;2598;52.364;9.772;2023-03-31T15:33:00;7.80;;;2.20;;
5157;SDS011;2598;52.364;9.772;2023-03-31T15:35:28;6.47;;;2.03;;
5157;SDS011;2598;52.364;9.772;2023-03-31T15:37:55;7.27;;;1.77;;
5157;SDS011;2598;52.364;9.772;2023-03-31T15:40:26;7.03;;;1.60;;
5157;SDS011;2598;52.364;9.772;2023-03-31T15:42:57;8.33;;;1.93;;
5157;SDS011;2598;52.364;9.772;2023-03-31T15:47:55;7.00;;;2.00;;
5157;SDS011;2598;52.364;9.772;2023-03-31T15:50:25;6.90;;;1.93;;
5157;SDS011;2598;52.364;9.772;2023-03-31T15:52:53;12.40;;;1.77;;
5157;SDS011;2598;52.364;9.772;2023-03-31T15:57:48;5.13;;;1.67;;
5157;SDS011;2598;52.364;9.772;2023-03-31T16:03:02;7.50;;;2.07;;
5157;SDS011;2598;52.364;9.772;2023-03-31T16:05:36;10.83;;;1.90;;
5157;SDS011;2598;52.364;9.772;2023-03-31T16:08:08;4.67;;;1.40;;
5157;SDS011;2598;52.364;9.772;2023-03-31T16:10:37;7.00;;;1.90;;
5157;SDS011;2598;52.364;9.772;2023-03-31T16:13:04;10.17;;;1.90;;
5157;SDS011;2598;52.364;9.772;2023-03-31T16:15:39;7.70;;;1.47;;
5157;SDS011;2598;52.364;9.772;2023-03-31T16:18:08;8.57;;;1.90;;
5157;SDS011;2598;52.364;9.772;2023-03-31T16:20:36;5.43;;;1.80;;
5157;SDS011;2598;52.364;9.772;2023-03-31T16:23:11;8.70;;;2.10;;
5157;SDS011;2598;52.364;9.772;2023-03-31T16:25:38;8.73;;;2.10;;
5157;SDS011;2598;52.364;9.772;2023-03-31T16:28:05;10.63;;;2.67;;
5157;SDS011;2598;52.364;9.772;2023-03-31T16:30:39;9.20;;;1.97;;
5157;SDS011;2598;52.364;9.772;2023-03-31T16:33:06;7.80;;;2.43;;
5157;SDS011;2598;52.364;9.772;2023-03-31T16:35:36;9.97;;;2.70;;
5157;SDS011;2598;52.364;9.772;2023-03-31T16:38:03;8.87;;;2.53;;
5157;SDS011;2598;52.364;9.772;2023-03-31T16:40:30;7.10;;;2.33;;
5157;SDS011;2598;52.364;9.772;2023-03-31T16:43:06;8.40;;;2.37;;
5157;SDS011;2598;52.364;9.772;2023-03-31T16:45:32;7.10;;;2.10;;
5157;SDS011;2598;52.364;9.772;2023-03-31T16:47:58;8.97;;;2.70;;
5157;SDS011;2598;52.364;9.772;2023-03-31T16:50:24;6.07;;;1.73;;
5157;SDS011;2598;52.364;9.772;2023-03-31T16:52:50;11.57;;;2.20;;
5157;SDS011;2598;52.364;9.772;2023-03-31T16:55:16;5.80;;;1.57;;
5157;SDS011;2598;52.364;9.772;2023-03-31T16:57:42;6.90;;;1.60;;
5157;SDS011;2598;52.364;9.772;2023-03-31T17:00:08;6.57;;;1.80;;
5157;SDS011;2598;52.364;9.772;2023-03-31T17:02:34;6.20;;;1.90;;
5157;SDS011;2598;52.364;9.772;2023-03-31T17:05:00;6.67;;;1.50;;
5157;SDS011;2598;52.364;9.772;2023-03-31T17:07:26;6.00;;;1.77;;
5157;SDS011;2598;52.364;9.772;2023-03-31T17:09:52;9.10;;;2.37;;
5157;SDS011;2598;52.364;9.772;2023-03-31T17:12:18;7.47;;;1.77;;
5157;SDS011;2598;52.364;9.772;2023-03-31T17:14:44;11.67;;;1.97;;
5157;SDS011;2598;52.364;9.772;2023-03-31T17:17:10;6.30;;;2.00;;
5157;SDS011;2598;52.364;9.772;2023-03-31T17:19:36;10.90;;;2.00;;
5157;SDS011;2598;52.364;9.772;2023-03-31T17:22:02;8.93;;;1.90;;
5157;SDS011;2598;52.364;9.772;2023-03-31T17:24:28;6.80;;;2.00;;
5157;SDS011;2598;52.364;9.772;2023-03-31T17:26:54;7.80;;;1.67;;
5157;SDS011;2598;52.364;9.772;2023-03-31T17:29:21;6.50;;;1.87;;